Time;durP1;ratioP1;P1;durP2;ratioP2;P2;SDS_P1;SDS_P2;PMS_P1;PMS_P2;Temp;Humidity;BMP_temperature;BMP_pressure;BME280_temperature;BME280_humidity;BME280_pressure;Samples;Min_cycle;Max_cycle;Signal;HPM_P1;HPM_P2
2022/03/27 00:02:18;;;;;;;13.00;2.30;;;;;;;4.67;40.68;99875.84;1652952;85;21104;-68
2022/03/27 00:04:45;;;;;;;12.53;3.20;;;;;;;4.65;40.87;99869.44;1652701;85;21014;-68
2022/03/27 00:07:12;;;;;;;12.07;3.67;;;;;;;4.61;40.69;99865.94;1660098;85;21081;-68
2022/03/27 00:09:39;;;;;;;12.37;5.72;;;;;;;4.59;40.78;99877.97;1649181;85;21044;-69
2022/03/27 00:12:08;;;;;;;12.00;4.63;;;;;;;4.60;40.79;99880.14;1647472;85;21032;-67
2022/03/27 00:14:37;;;;;;;15.93;6.13;;;;;;;4.57;40.56;99883.09;1650747;86;21077;-68
2022/03/27 00:17:04;;;;;;;8.73;3.10;;;;;;;4.54;40.38;99880.29;1649661;85;21600;-69
2022/03/27 00:19:31;;;;;;;10.07;2.17;;;;;;;4.51;39.75;99883.74;1646113;85;21101;-69
2022/03/27 00:21:58;;;;;;;15.83;2.55;;;;;;;4.45;39.02;99887.34;1599379;87;21177;-69
2022/03/27 00:24:25;;;;;;;19.10;4.70;;;;;;;4.38;39.31;99865.71;1635856;85;21043;-68
2022/03/27 00:26:52;;;;;;;15.97;5.30;;;;;;;4.35;39.52;99897.22;1646768;85;21146;-69
2022/03/27 00:29:21;;;;;;;;;;;;;;;4.29;39.67;99899.99;1640367;85;21104;-69
2022/03/27 00:31:49;;;;;;;13.70;4.40;;;;;;;4.27;39.80;99903.25;1639719;85;20165;-69
2022/03/27 00:34:17;;;;;;;8.43;2.47;;;;;;;4.19;39.87;99907.19;1652571;84;21641;-68
2022/03/27 00:36:45;;;;;;;12.57;4.13;;;;;;;4.13;39.38;99865.63;1677982;84;21689;-68
2022/03/27 00:39:11;;;;;;;15.07;5.67;;;;;;;4.10;39.56;99897.08;1694073;84;21015;-68
2022/03/27 00:41:43;;;;;;;22.13;5.53;;;;;;;4.04;39.13;99901.66;1685994;84;22236;-68
2022/03/27 00:44:10;;;;;;;18.93;5.57;;;;;;;4.02;39.74;99908.09;1673390;84;21039;-68
2022/03/27 00:46:37;;;;;;;14.77;5.07;;;;;;;4.01;39.81;99911.23;1658704;84;21074;-69
2022/03/27 00:49:03;;;;;;;;;;;;;;;4.00;40.02;99907.42;1662586;84;21102;-69
2022/03/27 00:51:32;;;;;;;20.03;4.00;;;;;;;3.97;39.95;99916.95;1662208;84;20506;-69
2022/03/27 00:53:59;;;;;;;8.63;3.25;;;;;;;3.91;39.89;99921.04;1656138;84;21118;-67
2022/03/27 00:56:26;;;;;;;11.57;2.50;;;;;;;3.89;39.79;99908.50;1664541;84;21191;-68
2022/03/27 00:58:53;;;;;;;15.15;3.55;;;;;;;3.87;39.47;99931.56;1666408;84;21065;-69
2022/03/27 01:01:24;;;;;;;8.07;2.27;;;;;;;3.87;39.63;99940.80;1666803;84;21071;-69
2022/03/27 01:03:54;;;;;;;9.23;1.47;;;;;;;3.85;39.77;99931.72;1648340;85;21087;-67
2022/03/27 01:06:32;;;;;;;5.57;0.93;;;;;;;3.85;39.89;99938.80;1626983;85;21094;-68
2022/03/27 01:11:49;;;;;;;11.33;3.27;;;;;;;3.81;39.78;99937.47;1631053;85;21464;-69
2022/03/27 01:14:29;;;;;;;8.83;2.80;;;;;;;3.76;39.65;99945.82;1639935;85;21101;-69
2022/03/27 01:17:08;;;;;;;21.17;4.30;;;;;;;3.73;39.86;99946.14;1633218;85;21094;-69
2022/03/27 01:19:43;;;;;;;17.93;5.17;;;;;;;3.70;39.92;99951.22;1636935;85;21115;-69
2022/03/27 01:22:10;;;;;;;14.77;5.43;;;;;;;3.65;40.29;99953.47;1646230;85;21621;-69
2022/03/27 01:24:37;;;;;;;11.47;5.10;;;;;;;3.64;40.16;99951.02;1636927;85;21429;-69
2022/03/27 01:27:05;;;;;;;19.60;5.97;;;;;;;3.57;40.15;99948.15;1632015;85;21570;-68
2022/03/27 01:29:32;;;;;;;18.23;6.50;;;;;;;3.63;40.35;99963.34;1641558;85;21166;-68
2022/03/27 01:31:59;;;;;;;23.00;7.47;;;;;;;3.62;40.43;99961.70;1636792;85;21059;-69
2022/03/27 01:34:26;;;;;;;;;;;;;;;3.62;40.46;99961.70;1633054;85;21058;-69
2022/03/27 01:36:52;;;;;;;14.27;4.23;;;;;;;3.59;40.38;99965.13;1609228;88;20406;-69
2022/03/27 01:39:19;;;;;;;11.20;3.72;;;;;;;3.60;40.70;99958.40;1634049;85;21505;-68
2022/03/27 01:41:46;;;;;;;8.90;2.37;;;;;;;3.58;41.10;99974.00;1636132;85;21071;-68
2022/03/27 01:44:17;;;;;;;12.85;3.72;;;;;;;3.60;41.40;99965.45;1639861;85;21083;-69
2022/03/27 01:46:45;;;;;;;3.97;2.27;;;;;;;3.58;41.68;99991.13;1649000;85;21245;-68
2022/03/27 01:49:15;;;;;;;7.80;1.30;;;;;;;3.58;42.32;99959.05;1634162;85;21186;-69
2022/03/27 01:51:43;;;;;;;4.83;1.03;;;;;;;3.55;42.73;99997.55;1637097;85;21027;-68
2022/03/27 01:54:11;;;;;;;7.43;0.53;;;;;;;3.56;42.95;100013.71;1626332;85;21093;-68
2022/03/27 01:56:39;;;;;;;1.47;0.53;;;;;;;3.55;43.43;100000.68;1649598;85;22074;-68
2022/03/27 01:59:07;;;;;;;;;;;;;;;3.52;43.62;100014.97;1651396;85;21083;-68
2022/03/27 02:01:37;;;;;;;3.63;0.10;;;;;;;3.54;43.87;100013.00;1638919;85;20166;-68
2022/03/27 02:04:06;;;;;;;2.87;0.47;;;;;;;3.43;44.65;100008.81;1648386;85;21066;-68
2022/03/27 02:06:37;;;;;;;3.47;0.13;;;;;;;3.40;45.01;100026.22;1636589;85;21149;-68
2022/03/27 02:09:04;;;;;;;4.90;0.10;;;;;;;3.39;45.33;100001.34;1645515;85;21577;-68
2022/03/27 02:11:32;;;;;;;3.80;0.40;;;;;;;3.33;45.46;100030.43;1640835;85;21137;-67
2022/03/27 02:13:59;;;;;;;8.77;0.30;;;;;;;3.29;46.12;100024.63;1641995;85;21169;-69
2022/03/27 02:16:25;;;;;;;0.68;0.10;;;;;;;3.31;46.01;100019.22;1636891;85;21045;-68
2022/03/27 02:18:52;;;;;;;6.40;0.20;;;;;;;3.31;45.89;100034.55;1643020;85;21527;-69
2022/03/27 02:21:19;;;;;;;;;;;;;;;3.36;45.85;100049.08;1649530;87;21589;-69
2022/03/27 02:23:45;;;;;;;3.10;0.23;;;;;;;3.36;46.08;100053.03;1641456;85;20106;-68
2022/03/27 02:26:12;;;;;;;;;;;;;;;3.28;46.21;100049.33;1640930;85;21102;-69
2022/03/27 02:28:40;;;;;;;5.08;0.80;;;;;;;3.29;46.17;100043.56;1649398;85;20158;-68
2022/03/27 02:31:08;;;;;;;3.13;0.60;;;;;;;3.25;46.28;100053.56;1649488;85;21090;-68
2022/03/27 02:33:36;;;;;;;1.80;0.20;;;;;;;3.29;46.21;100059.37;1647631;85;21002;-68
2022/03/27 02:36:08;;;;;;;3.37;0.50;;;;;;;3.27;46.21;100067.91;1645672;85;21551;-69
2022/03/27 02:38:36;;;;;;;3.90;0.47;;;;;;;3.27;46.32;100056.05;1641907;85;21090;-69
2022/03/27 02:41:04;;;;;;;2.17;0.50;;;;;;;3.25;46.46;100064.10;1643177;85;21114;-69
2022/03/27 02:43:31;;;;;;;5.70;0.40;;;;;;;3.27;46.23;100062.64;1649559;85;21535;-69
2022/03/27 02:46:00;;;;;;;2.50;0.20;;;;;;;3.29;46.03;100076.48;1638524;85;21621;-68
2022/03/27 02:48:27;;;;;;;3.37;0.60;;;;;;;3.26;46.14;100038.11;1643641;85;21084;-69
2022/03/27 02:50:54;;;;;;;4.10;0.20;;;;;;;3.25;46.01;100077.27;1647672;86;21142;-69
2022/03/27 02:53:20;;;;;;;2.92;0.50;;;;;;;3.24;46.26;100073.00;1644316;85;21366;-68
2022/03/27 02:55:46;;;;;;;3.20;0.50;;;;;;;3.24;46.30;100087.95;1638315;85;21418;-68
2022/03/27 02:58:13;;;;;;;4.22;0.30;;;;;;;3.23;46.42;100087.63;1625857;86;21026;-68
2022/03/27 03:00:42;;;;;;;1.13;0.10;;;;;;;3.20;46.31;100079.54;1632416;85;21068;-68
2022/03/27 03:03:10;;;;;;;0.93;0.10;;;;;;;3.17;46.00;100086.41;1636280;86;21161;-69
2022/03/27 03:05:39;;;;;;;0.40;0.20;;;;;;;3.17;45.95;100091.67;1627339;86;21037;-68
2022/03/27 03:08:11;;;;;;;3.13;0.20;;;;;;;3.12;45.95;100096.55;1639047;85;21044;-68
2022/03/27 03:10:40;;;;;;;1.27;0.10;;;;;;;3.07;46.32;100106.67;1624545;86;21007;-68
2022/03/27 03:13:10;;;;;;;1.80;0.10;;;;;;;3.02;46.41;100105.81;1611583;87;21058;-68
2022/03/27 03:15:42;;;;;;;2.67;0.10;;;;;;;3.00;46.38;100105.13;1602855;88;21074;-68
2022/03/27 03:18:10;;;;;;;0.27;0.10;;;;;;;2.98;46.21;100105.76;1608558;88;21557;-68
2022/03/27 03:20:38;;;;;;;0.20;0.10;;;;;;;2.97;46.22;100094.87;1613134;88;21078;-67
2022/03/27 03:23:06;;;;;;;3.53;0.37;;;;;;;2.95;45.97;100119.70;1620372;87;21517;-68
2022/03/27 03:25:33;;;;;;;;;;;;;;;2.96;45.96;100118.25;1651732;86;21096;-68
2022/03/27 03:28:00;;;;;;;2.97;0.10;;;;;;;2.98;46.06;100116.79;1656753;86;20590;-68
2022/03/27 03:30:26;;;;;;;1.30;0.10;;;;;;;2.93;45.99;100133.00;1632569;86;21526;-68
2022/03/27 03:32:53;;;;;;;1.85;0.10;;;;;;;2.96;46.12;100136.67;1632126;86;21583;-68
2022/03/27 03:35:21;;;;;;;0.30;0.30;;;;;;;2.92;46.28;100127.41;1643189;86;21123;-68
2022/03/27 03:37:48;;;;;;;1.00;0.20;;;;;;;2.94;46.15;100138.63;1655196;86;21138;-68
2022/03/27 03:40:14;;;;;;;2.90;0.30;;;;;;;2.91;46.15;100135.77;1622868;87;21078;-68
2022/03/27 03:42:41;;;;;;;4.08;0.40;;;;;;;2.90;46.22;100144.66;1626136;86;21226;-68
2022/03/27 03:45:09;;;;;;;2.13;0.23;;;;;;;2.82;46.08;100127.41;1637957;86;21111;-68
2022/03/27 03:47:36;;;;;;;5.63;0.20;;;;;;;2.86;46.46;100139.80;1640354;86;21532;-67
2022/03/27 03:50:06;;;;;;;2.10;0.23;;;;;;;2.88;46.39;100162.87;1596386;88;21155;-68
2022/03/27 03:52:33;;;;;;;0.80;0.30;;;;;;;2.87;46.45;100131.77;1648555;86;22272;-67
2022/03/27 03:54:59;;;;;;;0.50;0.10;;;;;;;2.84;46.26;100170.22;1639574;86;21090;-68
2022/03/27 03:57:27;;;;;;;2.80;0.20;;;;;;;2.77;46.50;100152.05;1645283;86;21125;-67
2022/03/27 03:59:55;;;;;;;0.87;0.10;;;;;;;2.77;46.37;100177.05;1605564;88;21150;-68
2022/03/27 04:02:21;;;;;;;1.42;0.10;;;;;;;2.74;46.58;100191.80;1651003;85;21589;-69
2022/03/27 04:04:48;;;;;;;4.33;0.20;;;;;;;2.73;46.78;100190.97;1654803;85;21149;-68
2022/03/27 04:07:15;;;;;;;0.50;0.10;;;;;;;2.77;46.79;100195.47;1656133;85;21121;-68
2022/03/27 04:09:41;;;;;;;1.73;0.20;;;;;;;2.77;46.90;100191.53;1656804;85;21058;-69
2022/03/27 04:12:10;;;;;;;0.70;0.20;;;;;;;2.80;46.78;100195.17;1644608;85;21169;-68
2022/03/27 04:14:36;;;;;;;1.40;0.20;;;;;;;2.81;46.82;100190.27;1653753;85;21114;-68
2022/03/27 04:17:04;;;;;;;0.93;0.47;;;;;;;2.81;46.87;100196.84;1655663;85;21101;-68
2022/03/27 04:19:32;;;;;;;1.97;0.63;;;;;;;2.81;46.91;100217.08;1650004;85;21582;-68
2022/03/27 04:21:58;;;;;;;1.05;0.55;;;;;;;2.79;47.12;100222.48;1652732;86;21019;-68
2022/03/27 04:24:25;;;;;;;;;;;;;;;2.78;47.19;100227.39;1643513;85;21091;-68
2022/03/27 04:26:52;;;;;;;0.37;0.10;;;;;;;2.75;47.58;100235.59;1653418;85;20135;-69
2022/03/27 04:29:18;;;;;;;1.37;0.30;;;;;;;2.49;48.31;100230.05;1637450;86;21009;-69
2022/03/27 04:31:46;;;;;;;2.90;0.53;;;;;;;2.43;49.78;100239.33;1653312;85;21074;-68
2022/03/27 04:34:13;;;;;;;0.80;0.20;;;;;;;2.36;50.97;100255.31;1680082;84;21165;-69
2022/03/27 04:36:43;;;;;;;1.00;0.10;;;;;;;2.27;53.90;100264.02;1689009;84;20992;-68
2022/03/27 04:39:10;;;;;;;1.07;0.20;;;;;;;2.16;54.47;100274.17;1680561;84;21087;-67
2022/03/27 04:41:37;;;;;;;2.03;0.30;;;;;;;1.99;55.54;100269.08;1693861;84;22107;-67
2022/03/27 04:44:05;;;;;;;11.65;1.17;;;;;;;1.92;55.09;100274.52;1685313;84;21007;-67
2022/03/27 04:46:33;;;;;;;0.43;0.43;;;;;;;1.85;54.51;100278.67;1691225;84;21028;-69
2022/03/27 04:48:59;;;;;;;;;;;;;;;1.85;54.67;100259.78;1690623;84;21099;-69
2022/03/27 04:51:26;;;;;;;0.20;0.20;;;;;;;1.83;54.93;100285.37;1681246;84;20137;-68
2022/03/27 04:53:54;;;;;;;0.97;0.10;;;;;;;1.76;56.03;100290.80;1688252;84;21035;-70
2022/03/27 04:56:21;;;;;;;2.07;0.20;;;;;;;1.75;56.43;100293.92;1641045;84;21049;-68
2022/03/27 04:58:47;;;;;;;;;;;;;;;1.77;56.74;100289.82;1691088;84;22340;-69
2022/03/27 05:01:14;;;;;;;2.30;0.10;;;;;;;1.80;57.27;100284.80;1684755;84;20179;-69
2022/03/27 05:03:42;;;;;;;3.10;0.10;;;;;;;1.71;56.93;100295.16;1692628;84;21197;-68
2022/03/27 05:06:10;;;;;;;0.73;0.23;;;;;;;1.77;55.51;100296.88;1692681;84;21498;-68
2022/03/27 05:08:38;;;;;;;1.80;0.20;;;;;;;1.77;54.77;100296.39;1707219;84;21208;-69
2022/03/27 05:11:06;;;;;;;0.90;0.20;;;;;;;1.79;54.22;100293.17;1654243;86;21215;-68
2022/03/27 05:13:33;;;;;;;0.47;0.10;;;;;;;1.82;53.32;100301.27;1644342;85;21064;-69
2022/03/27 05:15:59;;;;;;;;;;;;;;;1.81;52.31;100287.76;1663556;85;21094;-69
2022/03/27 05:18:26;;;;;;;0.70;0.10;;;;;;;1.89;52.20;100314.23;1645850;85;20148;-68
2022/03/27 05:20:53;;;;;;;4.22;0.13;;;;;;;1.97;52.04;100301.73;1652014;85;21139;-69
2022/03/27 05:23:19;;;;;;;0.20;0.10;;;;;;;2.16;51.74;100306.22;1660168;85;21996;-68
2022/03/27 05:25:49;;;;;;;2.13;0.10;;;;;;;2.32;51.61;100306.54;1660971;85;21192;-69
2022/03/27 05:28:19;;;;;;;6.97;0.10;;;;;;;2.37;51.82;100312.69;1665936;85;21086;-69
2022/03/27 05:30:46;;;;;;;6.97;0.93;;;;;;;2.50;51.93;100323.30;1698575;84;21067;-69
2022/03/27 05:33:13;;;;;;;0.30;0.20;;;;;;;2.65;51.88;100325.54;1655987;85;21527;-69
2022/03/27 05:35:41;;;;;;;3.70;0.40;;;;;;;2.93;51.81;100306.77;1696251;84;21090;-69
2022/03/27 05:38:08;;;;;;;3.07;0.20;;;;;;;3.21;51.39;100339.81;1688433;84;21022;-69
2022/03/27 05:40:36;;;;;;;1.75;0.30;;;;;;;3.49;50.45;100340.73;1698654;84;21552;-71
2022/03/27 05:43:04;;;;;;;2.20;0.40;;;;;;;4.21;49.85;100337.06;1682932;84;21116;-71
2022/03/27 05:45:32;;;;;;;1.30;0.20;;;;;;;5.15;48.09;100329.23;1685400;82;21121;-69
2022/03/27 05:47:59;;;;;;;0.20;0.10;;;;;;;5.81;44.92;100315.44;1694336;82;21490;-69
2022/03/27 05:50:26;;;;;;;2.10;0.10;;;;;;;5.89;44.60;100354.33;1677783;85;21144;-69
2022/03/27 05:52:57;;;;;;;1.50;0.20;;;;;;;5.71;44.29;100362.81;1655277;84;21103;-70
2022/03/27 05:55:25;;;;;;;5.00;0.60;;;;;;;5.36;44.22;100352.69;1651065;85;21258;-68
2022/03/27 05:57:51;;;;;;;0.20;0.10;;;;;;;4.78;44.55;100368.02;1661109;84;21066;-69
2022/03/27 06:00:21;;;;;;;1.90;0.13;;;;;;;4.53;45.33;100380.14;1649107;85;21136;-70
2022/03/27 06:02:50;;;;;;;0.20;0.20;;;;;;;5.02;45.19;100379.82;1676732;84;21237;-71
2022/03/27 06:05:18;;;;;;;2.43;0.17;;;;;;;5.89;43.13;100356.98;1663903;84;21076;-70
2022/03/27 06:07:50;;;;;;;0.80;0.10;;;;;;;6.65;41.75;100371.22;1644670;85;21108;-71
2022/03/27 06:10:24;;;;;;;3.60;0.10;;;;;;;7.07;40.54;100367.62;1636797;87;21172;-71
2022/03/27 06:12:52;;;;;;;1.07;0.10;;;;;;;7.55;39.96;100377.05;1677236;84;21069;-71
2022/03/27 06:18:23;;;;;;;0.20;0.00;;;;;;;8.62;37.38;100385.54;1789232;78;22755;-71
2022/03/27 06:20:50;;;;;;;2.53;0.10;;;;;;;9.15;36.34;100383.04;1762057;80;20986;-70
2022/03/27 06:23:17;;;;;;;0.47;0.10;;;;;;;9.22;35.35;100385.83;1751521;80;21600;-71
2022/03/27 06:25:45;;;;;;;0.77;0.20;;;;;;;8.72;35.42;100380.00;1722161;81;22280;-71
2022/03/27 06:28:11;;;;;;;1.27;0.20;;;;;;;8.43;36.29;100403.24;1731056;81;21112;-70
2022/03/27 06:30:38;;;;;;;1.20;0.70;;;;;;;8.28;36.46;100409.74;1730736;81;21092;-70
2022/03/27 06:33:05;;;;;;;1.93;0.20;;;;;;;7.83;36.61;100417.31;1692009;83;21160;-69
2022/03/27 06:35:32;;;;;;;2.20;0.20;;;;;;;7.42;36.89;100421.31;1631310;86;21050;-70
2022/03/27 06:38:00;;;;;;;3.62;0.25;;;;;;;6.81;37.30;100434.81;1639975;86;21477;-68
2022/03/27 06:40:27;;;;;;;1.80;0.70;;;;;;;6.22;38.11;100420.70;1642725;86;21560;-68
2022/03/27 06:42:53;;;;;;;0.67;0.30;;;;;;;5.63;38.65;100449.54;1639167;86;21559;-67
2022/03/27 06:45:22;;;;;;;0.20;0.20;;;;;;;5.36;38.92;100453.13;1657489;84;21039;-70
2022/03/27 06:47:49;;;;;;;1.17;0.50;;;;;;;5.49;39.12;100460.68;1634083;85;21093;-69
2022/03/27 06:50:19;;;;;;;3.67;0.20;;;;;;;5.70;39.09;100476.22;1649488;85;21102;-69
2022/03/27 06:52:47;;;;;;;6.07;0.20;;;;;;;5.44;36.50;100471.70;1649054;85;21093;-70
2022/03/27 06:55:15;;;;;;;3.87;0.27;;;;;;;4.99;36.15;100467.29;1649074;85;21339;-69
2022/03/27 06:57:43;;;;;;;2.80;0.30;;;;;;;4.70;36.98;100463.02;1644385;85;21936;-69
2022/03/27 07:03:09;;;;;;;2.73;0.10;;;;;;;4.03;35.51;100469.73;1641605;86;21077;-69
2022/03/27 07:05:42;;;;;;;1.27;0.10;;;;;;;3.75;35.03;100449.50;1652596;84;21161;-69
2022/03/27 07:08:15;;;;;;;0.70;0.10;;;;;;;3.44;35.58;100451.00;1649741;85;21109;-69
2022/03/27 07:10:44;;;;;;;0.10;0.10;;;;;;;3.48;35.84;100474.78;1652965;85;21091;-70
2022/03/27 07:13:13;;;;;;;3.10;0.10;;;;;;;3.55;36.07;100494.34;1681021;83;22164;-69
2022/03/27 07:15:43;;;;;;;4.37;0.20;;;;;;;3.57;35.04;100489.77;1656412;84;20958;-69
2022/03/27 07:18:12;;;;;;;1.03;0.10;;;;;;;3.27;34.08;100484.96;1675521;83;21616;-69
2022/03/27 07:20:42;;;;;;;6.13;0.20;;;;;;;3.05;34.16;100508.91;1654483;83;21096;-69
2022/03/27 07:23:13;;;;;;;0.00;0.00;;;;;;;2.99;34.36;100485.77;1700286;82;21116;-68
2022/03/27 07:25:45;;;;;;;0.87;0.10;;;;;;;2.89;35.00;100501.54;1674489;83;21065;-69
2022/03/27 07:28:14;;;;;;;0.40;0.10;;;;;;;2.86;34.98;100504.43;1685426;83;21324;-70
2022/03/27 07:30:43;;;;;;;0.13;0.10;;;;;;;2.79;35.66;100524.36;1679058;83;21065;-68
2022/03/27 07:33:11;;;;;;;6.90;0.10;;;;;;;2.76;36.33;100528.59;1681060;83;21502;-69
2022/03/27 07:35:38;;;;;;;0.73;0.10;;;;;;;2.79;37.11;100523.89;1680097;83;21588;-70
2022/03/27 07:38:07;;;;;;;0.40;0.10;;;;;;;2.82;37.97;100532.82;1701039;83;21046;-69
2022/03/27 07:40:34;;;;;;;0.10;0.10;;;;;;;2.85;39.17;100533.88;1685842;83;21110;-69
2022/03/27 07:43:03;;;;;;;1.27;0.20;;;;;;;2.95;38.71;100537.03;1675617;83;21054;-68
2022/03/27 07:45:33;;;;;;;0.97;0.20;;;;;;;3.06;37.71;100524.58;1679236;84;21116;-68
2022/03/27 07:48:04;;;;;;;6.60;0.20;;;;;;;3.09;35.80;100503.25;1670325;84;21014;-69
2022/03/27 07:50:34;;;;;;;1.17;0.10;;;;;;;3.14;34.80;100521.77;1673456;83;21066;-69
2022/03/27 07:53:03;;;;;;;1.53;0.47;;;;;;;3.08;34.94;100540.25;1687662;84;21459;-68
2022/03/27 07:55:33;;;;;;;0.27;0.20;;;;;;;3.07;35.09;100531.53;1672774;83;21010;-69
2022/03/27 07:58:02;;;;;;;0.30;0.13;;;;;;;3.11;35.52;100538.69;1704279;82;21006;-69
2022/03/27 08:00:31;;;;;;;3.93;0.10;;;;;;;3.18;35.59;100531.05;1690215;82;21052;-69
2022/03/27 08:03:02;;;;;;;0.20;0.10;;;;;;;3.16;35.47;100531.19;1670101;83;21134;-69
2022/03/27 08:05:29;;;;;;;0.10;0.10;;;;;;;3.18;35.67;100537.64;1668029;83;21157;-69
2022/03/27 08:07:57;;;;;;;5.97;0.30;;;;;;;3.26;35.69;100539.95;1668792;83;21133;-69
2022/03/27 08:10:27;;;;;;;0.10;0.10;;;;;;;3.31;35.90;100535.13;1622938;86;21639;-71
2022/03/27 08:12:56;;;;;;;1.40;0.10;;;;;;;3.22;36.58;100564.05;1652972;84;21145;-69
2022/03/27 08:15:25;;;;;;;1.33;0.10;;;;;;;3.15;37.29;100566.41;1689818;83;21090;-69
2022/03/27 08:17:53;;;;;;;2.80;0.20;;;;;;;3.10;37.63;100552.80;1677886;83;21095;-69
2022/03/27 08:20:23;;;;;;;2.87;0.10;;;;;;;3.08;37.83;100557.38;1641679;85;21420;-70
2022/03/27 08:22:51;;;;;;;1.40;0.10;;;;;;;3.00;38.44;100581.75;1692789;82;21727;-69
2022/03/27 08:28:09;;;;;;;5.60;0.50;;;;;;;3.03;38.50;100585.91;1702192;82;21037;-69
2022/03/27 08:30:37;;;;;;;2.00;0.10;;;;;;;3.04;37.60;100574.42;1706655;82;21034;-70
2022/03/27 08:33:04;;;;;;;4.27;0.30;;;;;;;2.94;37.41;100586.23;1669554;84;21534;-67
2022/03/27 08:35:33;;;;;;;0.77;0.10;;;;;;;2.85;38.04;100598.88;1643809;85;21585;-70
2022/03/27 08:38:04;;;;;;;1.87;0.67;;;;;;;2.84;38.58;100590.13;1709667;82;21121;-69
2022/03/27 08:40:34;;;;;;;0.70;0.30;;;;;;;2.86;38.58;100622.91;1698562;82;22132;-69
2022/03/27 08:43:06;;;;;;;3.30;0.23;;;;;;;2.92;38.81;100614.50;1706679;82;21140;-68
2022/03/27 08:45:33;;;;;;;0.20;0.20;;;;;;;2.97;39.30;100604.88;1712743;82;21097;-70
2022/03/27 08:48:03;;;;;;;0.60;0.33;;;;;;;3.01;39.09;100598.38;1669334;84;22228;-70
2022/03/27 08:50:38;;;;;;;1.00;0.20;;;;;;;3.02;38.67;100611.41;1688715;82;21081;-70
2022/03/27 08:53:11;;;;;;;1.23;0.20;;;;;;;3.04;38.74;100626.59;1706851;82;21163;-68
2022/03/27 08:55:58;;;;;;;1.90;0.10;;;;;;;3.18;38.08;100612.22;1705006;82;21088;-70
2022/03/27 08:58:39;;;;;;;0.53;0.20;;;;;;;3.30;37.69;100623.02;1675689;83;21062;-69
2022/03/27 09:01:10;;;;;;;1.17;0.10;;;;;;;3.28;37.53;100624.95;1678891;83;21024;-69
2022/03/27 09:03:40;;;;;;;0.30;0.10;;;;;;;3.21;37.35;100626.45;1674871;84;21090;-69
2022/03/27 09:06:08;;;;;;;0.10;0.10;;;;;;;3.25;36.80;100606.77;1666956;84;21028;-69
2022/03/27 09:08:37;;;;;;;0.20;0.10;;;;;;;3.28;36.04;100639.45;1638057;84;21019;-68
2022/03/27 09:11:06;;;;;;;6.13;0.20;;;;;;;3.17;35.34;100612.38;1676376;84;21005;-68
2022/03/27 09:13:35;;;;;;;1.03;0.13;;;;;;;3.07;35.27;100600.00;1679691;83;21102;-68
2022/03/27 09:16:07;;;;;;;3.57;0.37;;;;;;;2.91;35.53;100630.77;1693493;83;21118;-68
2022/03/27 09:19:01;;;;;;;2.03;0.53;;;;;;;2.77;35.94;100637.70;1679281;83;21177;-69
2022/03/27 09:21:34;;;;;;;2.63;0.10;;;;;;;2.72;36.65;100646.47;1681846;83;21542;-70
2022/03/27 09:24:04;;;;;;;1.53;0.20;;;;;;;2.77;37.45;100640.80;1669800;83;21044;-69
2022/03/27 09:26:33;;;;;;;0.30;0.10;;;;;;;2.71;36.90;100627.67;1658139;84;21106;-69
2022/03/27 09:29:11;;;;;;;2.03;0.10;;;;;;;2.68;36.68;100638.48;1641104;84;21473;-69
2022/03/27 09:31:39;;;;;;;2.33;0.17;;;;;;;2.72;37.13;100624.92;1663350;84;21580;-69
2022/03/27 09:34:07;;;;;;;0.70;0.10;;;;;;;2.80;36.89;100618.17;1688971;82;21538;-69
2022/03/27 09:36:41;;;;;;;5.53;0.10;;;;;;;2.90;36.83;100637.02;1706507;82;21110;-68
2022/03/27 09:39:17;;;;;;;0.30;0.10;;;;;;;2.99;37.29;100629.28;1717718;82;21508;-69
2022/03/27 09:41:52;;;;;;;2.00;0.20;;;;;;;3.02;37.50;100650.92;1724208;82;21004;-69
2022/03/27 09:44:24;;;;;;;0.33;0.20;;;;;;;3.10;38.05;100623.92;1711464;82;21033;-72
2022/03/27 09:47:06;;;;;;;1.47;0.83;;;;;;;3.10;38.43;100642.36;1711630;82;21036;-70
2022/03/27 09:49:49;;;;;;;0.60;0.60;;;;;;;3.17;38.57;100647.94;1716875;82;22303;-70
2022/03/27 09:52:20;;;;;;;2.97;0.17;;;;;;;3.20;38.74;100646.34;1710084;82;21128;-69
2022/03/27 09:55:01;;;;;;;1.20;0.10;;;;;;;3.14;38.85;100655.61;1712826;82;21044;-68
2022/03/27 09:57:39;;;;;;;0.20;0.13;;;;;;;3.05;38.64;100644.08;1719240;82;21012;-69
2022/03/27 10:00:19;;;;;;;0.72;0.37;;;;;;;3.04;38.60;100645.53;1715285;82;21053;-69
2022/03/27 10:02:49;;;;;;;0.83;0.27;;;;;;;3.09;38.49;100628.85;1706134;82;21040;-69
2022/03/27 10:05:21;;;;;;;2.40;0.20;;;;;;;3.15;38.07;100636.70;1692119;83;21021;-70
2022/03/27 10:07:54;;;;;;;5.60;0.20;;;;;;;3.23;38.14;100628.47;1711395;82;21005;-69
2022/03/27 10:10:25;;;;;;;0.27;0.20;;;;;;;3.24;37.52;100647.27;1709823;82;21021;-69
2022/03/27 10:12:58;;;;;;;1.60;0.10;;;;;;;3.32;36.92;100651.88;1718300;82;21492;-68
2022/03/27 10:15:28;;;;;;;1.27;0.30;;;;;;;3.40;36.89;100644.61;1712834;82;21199;-69
2022/03/27 10:18:04;;;;;;;3.03;0.53;;;;;;;3.43;36.53;100648.31;1702578;82;21072;-70
2022/03/27 10:20:37;;;;;;;3.30;0.87;;;;;;;3.42;36.92;100650.09;1720360;82;21073;-70
2022/03/27 10:23:16;;;;;;;2.10;1.55;;;;;;;3.46;37.00;100655.44;1703834;82;20987;-68
2022/03/27 10:25:55;;;;;;;2.40;1.00;;;;;;;3.51;36.91;100649.29;1696765;83;21122;-69
2022/03/27 10:28:24;;;;;;;6.67;0.60;;;;;;;3.59;36.93;100648.61;1712797;83;21013;-70
2022/03/27 10:30:53;;;;;;;4.17;0.50;;;;;;;3.74;36.39;100646.91;1692830;83;21082;-69
2022/03/27 10:33:26;;;;;;;1.60;0.20;;;;;;;3.86;36.66;100642.70;1699468;83;21045;-69
2022/03/27 10:36:17;;;;;;;0.40;0.20;;;;;;;3.95;35.33;100646.80;1714117;82;22347;-69
2022/03/27 10:38:57;;;;;;;5.20;0.27;;;;;;;3.99;35.33;100642.41;1716925;82;21902;-69
2022/03/27 10:41:53;;;;;;;2.20;0.20;;;;;;;4.05;34.84;100635.29;1725772;82;21037;-70
2022/03/27 10:44:49;;;;;;;0.30;0.10;;;;;;;4.05;34.64;100645.84;1694316;82;20998;-69
2022/03/27 10:47:26;;;;;;;0.83;0.20;;;;;;;4.03;34.13;100642.97;1717126;82;21043;-70
2022/03/27 10:50:10;;;;;;;2.23;0.10;;;;;;;3.95;33.94;100612.02;1715218;82;21070;-70
2022/03/27 10:52:52;;;;;;;5.60;0.57;;;;;;;3.87;33.85;100609.25;1713258;82;21126;-70
2022/03/27 10:55:22;;;;;;;0.90;0.10;;;;;;;3.81;33.91;100644.91;1722942;82;21077;-70
2022/03/27 10:57:52;;;;;;;2.50;0.20;;;;;;;3.79;34.23;100642.08;1657394;84;21208;-69
2022/03/27 11:00:40;;;;;;;0.20;0.10;;;;;;;3.83;33.31;100625.00;1671329;84;21085;-69
2022/03/27 11:03:11;;;;;;;4.60;0.10;;;;;;;3.87;33.14;100641.72;1709365;82;21608;-68
2022/03/27 11:05:54;;;;;;;2.27;0.20;;;;;;;3.74;32.60;100630.60;1693775;82;21014;-69
2022/03/27 11:08:29;;;;;;;1.03;0.17;;;;;;;3.78;32.63;100644.34;1707393;82;21050;-68
2022/03/27 11:10:59;;;;;;;1.22;0.10;;;;;;;3.77;32.94;100641.34;1714877;82;21037;-69
2022/03/27 11:13:39;;;;;;;3.00;0.10;;;;;;;3.78;32.42;100624.58;1712719;82;21517;-69
2022/03/27 11:16:15;;;;;;;0.50;0.10;;;;;;;3.73;32.60;100647.41;1713722;82;21126;-70
2022/03/27 11:18:51;;;;;;;0.63;0.30;;;;;;;3.61;32.99;100620.31;1696717;82;21027;-69
2022/03/27 11:21:33;;;;;;;0.80;0.30;;;;;;;3.61;33.29;100638.77;1721112;81;21017;-69
2022/03/27 11:24:10;;;;;;;5.50;0.27;;;;;;;3.63;32.95;100650.00;1717646;82;21065;-69
2022/03/27 11:26:40;;;;;;;0.55;0.20;;;;;;;3.67;32.38;100635.61;1680081;84;21523;-69
2022/03/27 11:29:22;;;;;;;4.80;0.10;;;;;;;3.70;31.61;100638.44;1712531;82;20999;-69
2022/03/27 11:32:08;;;;;;;2.77;0.10;;;;;;;3.81;31.17;100640.13;1714723;82;21080;-69
2022/03/27 11:34:39;;;;;;;0.50;0.28;;;;;;;3.82;30.14;100642.61;1718910;81;21089;-69
2022/03/27 11:37:25;;;;;;;1.30;0.20;;;;;;;3.75;30.20;100647.25;1682305;84;22233;-69
2022/03/27 11:39:54;;;;;;;5.07;0.20;;;;;;;3.75;30.81;100645.47;1693542;82;21719;-68
2022/03/27 11:42:28;;;;;;;0.43;0.10;;;;;;;3.82;31.21;100632.55;1722097;82;21102;-70
2022/03/27 11:45:22;;;;;;;4.00;0.17;;;;;;;3.92;31.37;100640.00;1709394;82;21062;-70
2022/03/27 11:47:53;;;;;;;0.40;0.10;;;;;;;4.04;31.59;100627.51;1687700;83;21557;-69
2022/03/27 11:50:34;;;;;;;0.23;0.10;;;;;;;4.16;31.38;100645.34;1685665;83;21494;-69
2022/03/27 11:53:03;;;;;;;2.53;0.10;;;;;;;4.18;30.66;100637.66;1682524;83;21065;-69
2022/03/27 11:55:35;;;;;;;0.60;0.30;;;;;;;4.23;30.62;100639.37;1697117;82;21889;-69
2022/03/27 11:58:07;;;;;;;2.20;0.10;;;;;;;4.26;30.33;100644.37;1715402;82;21501;-71
2022/03/27 12:00:46;;;;;;;1.13;0.10;;;;;;;4.19;30.12;100637.98;1704870;82;21063;-69
2022/03/27 12:03:19;;;;;;;2.13;0.70;;;;;;;4.18;30.54;100642.93;1695909;82;21105;-71